world map with QSR marked

QSR - Airport

This information may not be accurate or current and is not valid for navigation or flight planning. No warranty of fitness for any purpose is made or implied.

flag of Campaniaflag of Italy

Donate via PayPal

Additional information is available on the NEW Great Circle Mapper

Location
City:  Salerno, Campania, Italy
Name:Pontecagnano
ICAO / IATA:LIRI / QSR

Details
Type:Airport (Aerodrome, Airfield)
Latitude:40°37'13"N (40.620400)
Longitude:14°54'41"E (14.911294)
Datum:WGS 1984
Elevation:123 ft (37 m)
Runways:1
Longest:4577 × 148 ft (1395 × 45 m)

Time
Timezone:UTC+1 (DST+4)
Local Time:

Weather
METAR:LIRI  041350Z 36019KT 9999 FEW020 OVC070 14/05 Q1012

Related Locations
Nearby:
Farthest:CHT: 11817 mi / 19018 km
Waitangi [Tuuta], CIT, NZ

Find:

   beyond  
but within

Other Information
Maps:
Sources:

  


 


Great Circle Mapper   Great Circle Mapper
Great Circle Mapper FAQ   Great Circle Mapper FAQ
  Karl's Home Page
KLSē   KLSē Home
   GC on Facebook
Airlines of the World   Airlines of the World
Donate via PayPal


Copyright © 2004-2019, Karl L. Swartz. All rights reserved.
All trademarks mentioned herein belong to their respective owners.

Please see credits for attribution and copyright information.

Karl Swartz <karl@kls2.com>
  Powered by FreeBSD
Valid HTML 4.01!
Labeled with ICRA
hCard Microformat
Geo Microformat